Home PIREPS Pireps

Flight BEL1023

  • Submitted By: Jean-Jacques Scohy
  • Departure Airport: Bruxelles National (EBBR)
  • Arrival Airport: Napoli / Capodichino (LIRN)
  • Aircraft: A319-111 (OO-SSF)
  • Flight Time: 02.17
  • Date Submitted: 23/04/2017
  • Route: SOPOK1W SOPOK UY863 ETENO Y863 UBIDU UL607 UTABA UM738 AMTEL UL995 TEA TEA.POM1D
  • Status: Accepted
Flight Details
Gross Revenue:
(112 load / € 0.00 per unit
€ 0.00
Fuel Cost:
(3701 fuel used @ 0 / unit)
€ 0.00

Additional Log Information:

View Log

Aircraft Used in flight is Boeing 737-800 PM Brussels Airlines
19:04 You Took off @ 156 Knots and Flaps at Position 3
Departure Weather
EBBR 231650Z 04005KT CAVOK 10/02 Q1025 NOSIGrn
19:04 Landing Gear Up @ 165 Knots and 230 Feet
19:04 You exceeded maximum bank angle
19:19 Stalling
19:22 Paused
19:22 Unpaused
19:22 Recovered from Stall
20:56 Paused
21:29 Unpaused
21:35 Above FL100 you need to switch of the landing lights
21:35 Above FL100 you need to switch of the landing lights
21:46 Landing Gear Down @ 171 Knots and 1470 Feet
21:47 You Landed @ 158 Knots and with -300 Vertical Speed
Arrival Weather
LIRN 231920Z 26004KT 9999 SCT030 14/09 Q1021 NOSIGrn
21:48 Brakes are On
21:48 Brussels Bel-Track1.0.1.1

Route Map

Corporate About Us Our Team Vacancies Information Fleet Route Network Rules and Regulations Operations Flight Schedules Event Center Tours Partners IVAO Vatsim Acars dev FSCB

fb Users Online No pilots online!
0 Pilot(s) and 142 Guest(s) Online
CMS by phpVMS - Design by Crazycreatives.com - Copyright © 2018 - Brussels Airlines Virtual